Nearby METAR Reports

 

GCLP - Las Palmas/Gando, Spain
Distance from station: NE 26km
Updated: 18/11/2018 06:00
Few Clouds
Few Clouds
 Wind from NNW
Wind: NNW 11 km/h
Temperature: 18°C
Dew Point: 10°C
Humidity: 60%
Barometer: 1011 hPa
Clouds: Few Clouds
Visibility: 10 km
Cloud details: Few Clouds 1829 m
2018/11/18 06:00 GCLP 180600Z 34006KT 9999 FEW060 18/10 Q1011 NOSIG
GCTS - Tenerife Sur/Rei, Spain
Distance from station: WNW 102km
Updated: 18/11/2018 06:00
Partly cloudy
Partly cloudy
 Wind from NNE
Wind: NNE 11 km/h
Temperature: 19°C
Dew Point: 13°C
Humidity: 68%
Barometer: 1011 hPa
Clouds: Partly cloudy
Visibility: 10 km
Cloud details: Partly cloudy 1067 m
2018/11/18 06:00 GCTS 180600Z 02006KT 350V060 9999 SCT035 19/13 Q1011 NOSIG
 
GCXO - Tenerife/Los Rod, Spain
Distance from station: NW 110km
Updated: 18/11/2018 06:00
Mostly cloudy
Mostly cloudy
 Wind from W
Wind: W 11 km/h
Temperature: 13°C
Dew Point: 11°C
Humidity: 88%
Barometer: 1013 hPa
Clouds: Mostly cloudy
Visibility: 10 km
Cloud details: Mostly cloudy 457 m
2018/11/18 06:00 GCXO 180600Z 27006KT 240V300 9999 BKN015 13/11 Q1013 NOSIG
GCGM - La Gomera Arpt, Spain
Distance from station: W 164km
Updated: 18/11/2018 06:00
Few Clouds
Few Clouds
 Wind from varies
Wind: varies 4 km/h
Temperature: 17°C
Dew Point: 10°C
Humidity: 64%
Barometer: 1012 hPa
Clouds: Few Clouds
Visibility: 10 km
Cloud details: Few Clouds 2134 m
2018/11/18 06:00 GCGM 180600Z AUTO VRB02KT 9999 FEW070 17/10 Q1012 RMK R09/31003KT 230V350 ARP/VRB02KT
 
GCFV - Fuerteventura Ar, Spain
Distance from station: ENE 183km
Updated: 18/11/2018 06:00
Clear
Clear
 Wind from NW
Wind: NW 11 km/h
Temperature: 19°C
Dew Point: 13°C
Humidity: 68%
Barometer: 1010 hPa
Summary: Clear
Visibility: greater than 10 km
2018/11/18 06:00 GCFV 180600Z 31006KT 230V360 CAVOK 19/13 Q1010
GCHI - Hierro Airport, Spain
Distance from station: W 226km
Updated: 18/11/2018 06:00
Mostly cloudy
Mostly cloudy
 Wind from NW
Wind: NW 13 km/h
Temperature: 19°C
Dew Point: 13°C
Humidity: 68%
Barometer: 1012 hPa
Clouds: Mostly cloudy
Visibility: 10 km
Cloud details: Mostly cloudy 1067 m
Mostly cloudy 1311 m
2018/11/18 06:00 GCHI 180600Z AUTO 32007KT 280V350 9999 BKN035/// BKN043/// 19/13 Q1012
 
GCLA - La Palma Airport, Spain
Distance from station: WNW 233km
Updated: 18/11/2018 06:00
Clear
Clear
 Wind from WNW
Wind: WNW 13 km/h
Temperature: 18°C
Dew Point: 8°C
Humidity: 52%
Barometer: 1012 hPa
Clouds: Clear
Visibility: 10 km
2018/11/18 06:00 GCLA 180600Z AUTO 30007KT 260V340 9999 NCD 18/08 Q1012
GCRR - Arrecife/Lanzaro, Spain
Distance from station: NE 234km
Updated: 18/11/2018 06:00
Few Clouds
Few Clouds
 Wind from WNW
Wind: WNW 6 km/h
Temperature: 16°C
Dew Point: 12°C
Humidity: 77%
Barometer: 1010 hPa
Clouds: Few Clouds
Visibility: 10 km
Cloud details: Few Clouds 914 m
2018/11/18 06:00 GCRR 180600Z 29003KT 240V340 9999 FEW030 16/12 Q1010
 
LPMA - Funchal/Madeira, Portugal
Distance from station: NNW 556km
Updated: 18/11/2018 06:00
Mostly cloudy
Mostly cloudy
 Wind from W
Wind: W 15 km/h
Temperature: 14°C
Dew Point: 10°C
Humidity: 77%
Barometer: 1009 hPa
Clouds: Mostly cloudy
Visibility: 10 km
Cloud details: Mostly cloudy 457 m
2018/11/18 06:00 LPMA 180600Z 27008KT 9999 BKN015 14/10 Q1009
LPPS - Porto Santo Isla, Portugal
Distance from station: N 594km
Updated: 18/11/2018 06:00
Few Clouds
Few Clouds
 Wind from NNW
Wind: NNW 26 km/h
Temperature: 15°C
Dew Point: 9°C
Humidity: 68%
Barometer: 1009 hPa
Clouds: Few Clouds
Visibility: 10 km
Cloud details: Partly cloudy 457 m
Few Clouds 549 m
2018/11/18 06:00 LPPS 180600Z 33014KT 9999 SCT015 FEW018TCU 15/09 Q1009